sensor_id;sensor_type;location;lat;lon;timestamp;P1;durP1;ratioP1;P2;durP2;ratioP2
3299;SDS011;1662;49.310;8.134;2022-07-22T00:00:24;13.03;;;11.73;;
3299;SDS011;1662;49.310;8.134;2022-07-22T00:02:49;12.60;;;11.40;;
3299;SDS011;1662;49.310;8.134;2022-07-22T00:05:17;13.20;;;12.00;;
3299;SDS011;1662;49.310;8.134;2022-07-22T00:07:43;12.90;;;11.80;;
3299;SDS011;1662;49.310;8.134;2022-07-22T00:10:09;12.67;;;11.57;;
3299;SDS011;1662;49.310;8.134;2022-07-22T00:12:36;13.60;;;12.50;;
3299;SDS011;1662;49.310;8.134;2022-07-22T00:15:03;12.50;;;11.33;;
3299;SDS011;1662;49.310;8.134;2022-07-22T00:17:31;14.87;;;12.00;;
3299;SDS011;1662;49.310;8.134;2022-07-22T00:19:57;13.53;;;12.10;;
3299;SDS011;1662;49.310;8.134;2022-07-22T00:22:23;13.00;;;11.90;;
3299;SDS011;1662;49.310;8.134;2022-07-22T00:24:51;12.30;;;11.20;;
3299;SDS011;1662;49.310;8.134;2022-07-22T00:27:17;12.90;;;11.70;;
3299;SDS011;1662;49.310;8.134;2022-07-22T00:29:45;12.00;;;11.00;;
3299;SDS011;1662;49.310;8.134;2022-07-22T00:32:10;13.13;;;12.03;;
3299;SDS011;1662;49.310;8.134;2022-07-22T00:34:38;11.40;;;10.40;;
3299;SDS011;1662;49.310;8.134;2022-07-22T00:37:04;12.60;;;11.40;;
3299;SDS011;1662;49.310;8.134;2022-07-22T00:39:31;12.73;;;11.63;;
3299;SDS011;1662;49.310;8.134;2022-07-22T00:41:57;11.47;;;10.50;;
3299;SDS011;1662;49.310;8.134;2022-07-22T00:44:25;11.87;;;10.77;;
3299;SDS011;1662;49.310;8.134;2022-07-22T00:46:51;12.57;;;11.37;;
3299;SDS011;1662;49.310;8.134;2022-07-22T00:49:17;12.40;;;11.20;;
3299;SDS011;1662;49.310;8.134;2022-07-22T00:51:45;12.37;;;11.27;;
3299;SDS011;1662;49.310;8.134;2022-07-22T00:54:14;13.80;;;12.60;;
3299;SDS011;1662;49.310;8.134;2022-07-22T00:56:40;11.67;;;10.80;;
3299;SDS011;1662;49.310;8.134;2022-07-22T00:59:08;13.07;;;11.87;;
3299;SDS011;1662;49.310;8.134;2022-07-22T01:01:35;12.47;;;11.37;;
3299;SDS011;1662;49.310;8.134;2022-07-22T01:04:01;12.70;;;11.50;;
3299;SDS011;1662;49.310;8.134;2022-07-22T01:06:28;13.70;;;12.57;;
3299;SDS011;1662;49.310;8.134;2022-07-22T01:08:54;14.37;;;13.17;;
3299;SDS011;1662;49.310;8.134;2022-07-22T01:11:20;13.70;;;12.50;;
3299;SDS011;1662;49.310;8.134;2022-07-22T01:13:46;14.00;;;12.87;;
3299;SDS011;1662;49.310;8.134;2022-07-22T01:16:13;12.83;;;11.60;;
3299;SDS011;1662;49.310;8.134;2022-07-22T01:18:40;12.80;;;11.70;;
3299;SDS011;1662;49.310;8.134;2022-07-22T01:21:07;12.87;;;11.77;;
3299;SDS011;1662;49.310;8.134;2022-07-22T01:23:37;12.67;;;11.67;;
3299;SDS011;1662;49.310;8.134;2022-07-22T01:26:05;13.20;;;12.20;;
3299;SDS011;1662;49.310;8.134;2022-07-22T01:28:31;12.53;;;11.53;;
3299;SDS011;1662;49.310;8.134;2022-07-22T01:30:57;13.70;;;12.30;;
3299;SDS011;1662;49.310;8.134;2022-07-22T01:33:23;12.27;;;11.27;;
3299;SDS011;1662;49.310;8.134;2022-07-22T01:35:50;13.17;;;12.17;;
3299;SDS011;1662;49.310;8.134;2022-07-22T01:38:18;12.60;;;11.50;;
3299;SDS011;1662;49.310;8.134;2022-07-22T01:40:44;12.83;;;11.83;;
3299;SDS011;1662;49.310;8.134;2022-07-22T01:43:10;13.60;;;12.40;;
3299;SDS011;1662;49.310;8.134;2022-07-22T01:45:38;13.03;;;12.00;;
3299;SDS011;1662;49.310;8.134;2022-07-22T01:48:04;13.67;;;12.20;;
3299;SDS011;1662;49.310;8.134;2022-07-22T01:50:30;12.90;;;11.80;;
3299;SDS011;1662;49.310;8.134;2022-07-22T01:52:55;13.00;;;11.63;;
3299;SDS011;1662;49.310;8.134;2022-07-22T01:55:24;12.30;;;11.17;;
3299;SDS011;1662;49.310;8.134;2022-07-22T01:57:49;12.20;;;11.20;;
3299;SDS011;1662;49.310;8.134;2022-07-22T02:00:17;12.53;;;11.53;;
3299;SDS011;1662;49.310;8.134;2022-07-22T02:02:43;13.47;;;12.40;;
3299;SDS011;1662;49.310;8.134;2022-07-22T02:05:09;12.63;;;11.63;;
3299;SDS011;1662;49.310;8.134;2022-07-22T02:07:37;13.53;;;11.83;;
3299;SDS011;1662;49.310;8.134;2022-07-22T02:10:04;12.63;;;11.63;;
3299;SDS011;1662;49.310;8.134;2022-07-22T02:12:30;12.30;;;11.13;;
3299;SDS011;1662;49.310;8.134;2022-07-22T02:14:56;10.87;;;9.90;;
3299;SDS011;1662;49.310;8.134;2022-07-22T02:17:21;11.23;;;10.27;;
3299;SDS011;1662;49.310;8.134;2022-07-22T02:19:47;12.10;;;11.20;;
3299;SDS011;1662;49.310;8.134;2022-07-22T02:22:13;9.20;;;8.60;;
3299;SDS011;1662;49.310;8.134;2022-07-22T02:24:38;12.27;;;11.20;;
3299;SDS011;1662;49.310;8.134;2022-07-22T02:27:04;11.23;;;10.20;;
3299;SDS011;1662;49.310;8.134;2022-07-22T02:29:30;11.97;;;10.87;;
3299;SDS011;1662;49.310;8.134;2022-07-22T02:31:56;10.60;;;9.60;;
3299;SDS011;1662;49.310;8.134;2022-07-22T02:34:22;10.60;;;9.60;;
3299;SDS011;1662;49.310;8.134;2022-07-22T02:36:47;11.10;;;10.10;;
3299;SDS011;1662;49.310;8.134;2022-07-22T02:39:13;10.53;;;9.60;;
3299;SDS011;1662;49.310;8.134;2022-07-22T02:41:39;11.43;;;10.43;;
3299;SDS011;1662;49.310;8.134;2022-07-22T02:44:04;9.30;;;8.60;;
3299;SDS011;1662;49.310;8.134;2022-07-22T02:46:33;10.87;;;9.80;;
3299;SDS011;1662;49.310;8.134;2022-07-22T02:48:58;10.93;;;9.70;;
3299;SDS011;1662;49.310;8.134;2022-07-22T02:51:27;15.33;;;10.80;;
3299;SDS011;1662;49.310;8.134;2022-07-22T02:53:53;10.33;;;9.40;;
3299;SDS011;1662;49.310;8.134;2022-07-22T02:56:21;10.97;;;10.00;;
3299;SDS011;1662;49.310;8.134;2022-07-22T02:58:49;11.70;;;10.50;;
3299;SDS011;1662;49.310;8.134;2022-07-22T03:01:18;14.30;;;10.07;;
3299;SDS011;1662;49.310;8.134;2022-07-22T03:03:44;11.87;;;10.67;;
3299;SDS011;1662;49.310;8.134;2022-07-22T03:06:11;10.20;;;9.30;;
3299;SDS011;1662;49.310;8.134;2022-07-22T03:08:38;9.47;;;8.77;;
3299;SDS011;1662;49.310;8.134;2022-07-22T03:11:04;10.00;;;9.17;;
3299;SDS011;1662;49.310;8.134;2022-07-22T03:13:30;11.00;;;9.90;;
3299;SDS011;1662;49.310;8.134;2022-07-22T03:15:56;10.87;;;9.93;;
3299;SDS011;1662;49.310;8.134;2022-07-22T03:18:27;11.43;;;10.17;;
3299;SDS011;1662;49.310;8.134;2022-07-22T03:20:53;11.33;;;10.37;;
3299;SDS011;1662;49.310;8.134;2022-07-22T03:23:19;9.30;;;8.47;;
3299;SDS011;1662;49.310;8.134;2022-07-22T03:25:44;11.60;;;9.80;;
3299;SDS011;1662;49.310;8.134;2022-07-22T03:28:10;9.77;;;8.87;;
3299;SDS011;1662;49.310;8.134;2022-07-22T03:30:36;9.57;;;8.83;;
3299;SDS011;1662;49.310;8.134;2022-07-22T03:33:04;11.90;;;10.77;;
3299;SDS011;1662;49.310;8.134;2022-07-22T03:35:30;11.43;;;10.37;;
3299;SDS011;1662;49.310;8.134;2022-07-22T03:37:55;10.20;;;9.30;;
3299;SDS011;1662;49.310;8.134;2022-07-22T03:40:21;11.20;;;10.20;;
3299;SDS011;1662;49.310;8.134;2022-07-22T03:42:47;10.50;;;9.70;;
3299;SDS011;1662;49.310;8.134;2022-07-22T03:45:14;9.93;;;9.13;;
3299;SDS011;1662;49.310;8.134;2022-07-22T03:47:41;11.30;;;10.20;;
3299;SDS011;1662;49.310;8.134;2022-07-22T03:50:06;10.67;;;9.70;;
3299;SDS011;1662;49.310;8.134;2022-07-22T03:52:32;10.50;;;9.40;;
3299;SDS011;1662;49.310;8.134;2022-07-22T03:54:58;10.73;;;9.63;;
3299;SDS011;1662;49.310;8.134;2022-07-22T03:57:24;10.47;;;9.57;;
3299;SDS011;1662;49.310;8.134;2022-07-22T03:59:49;14.07;;;9.73;;
3299;SDS011;1662;49.310;8.134;2022-07-22T04:02:15;10.53;;;9.63;;
3299;SDS011;1662;49.310;8.134;2022-07-22T04:04:46;11.50;;;9.87;;
3299;SDS011;1662;49.310;8.134;2022-07-22T04:07:12;10.03;;;9.10;;
3299;SDS011;1662;49.310;8.134;2022-07-22T04:09:37;11.57;;;10.50;;
3299;SDS011;1662;49.310;8.134;2022-07-22T04:12:03;9.93;;;9.07;;
3299;SDS011;1662;49.310;8.134;2022-07-22T04:14:29;10.00;;;9.10;;
3299;SDS011;1662;49.310;8.134;2022-07-22T04:16:55;9.43;;;8.63;;
3299;SDS011;1662;49.310;8.134;2022-07-22T04:19:20;10.80;;;9.80;;
3299;SDS011;1662;49.310;8.134;2022-07-22T04:21:48;11.10;;;8.93;;
3299;SDS011;1662;49.310;8.134;2022-07-22T04:24:14;9.93;;;8.97;;
3299;SDS011;1662;49.310;8.134;2022-07-22T04:26:40;16.33;;;8.70;;
3299;SDS011;1662;49.310;8.134;2022-07-22T04:29:07;11.20;;;9.90;;
3299;SDS011;1662;49.310;8.134;2022-07-22T04:31:33;11.33;;;9.13;;
3299;SDS011;1662;49.310;8.134;2022-07-22T04:33:59;12.07;;;9.67;;
3299;SDS011;1662;49.310;8.134;2022-07-22T04:36:24;10.67;;;8.90;;
3299;SDS011;1662;49.310;8.134;2022-07-22T04:38:52;9.80;;;8.80;;
3299;SDS011;1662;49.310;8.134;2022-07-22T04:41:18;9.47;;;8.67;;
3299;SDS011;1662;49.310;8.134;2022-07-22T04:43:44;9.73;;;8.40;;
3299;SDS011;1662;49.310;8.134;2022-07-22T04:46:12;10.50;;;9.47;;
3299;SDS011;1662;49.310;8.134;2022-07-22T04:48:37;15.20;;;9.60;;
3299;SDS011;1662;49.310;8.134;2022-07-22T04:51:03;12.70;;;9.73;;
3299;SDS011;1662;49.310;8.134;2022-07-22T04:53:29;9.63;;;8.73;;
3299;SDS011;1662;49.310;8.134;2022-07-22T04:55:57;11.43;;;10.30;;
3299;SDS011;1662;49.310;8.134;2022-07-22T04:58:22;10.43;;;9.53;;
3299;SDS011;1662;49.310;8.134;2022-07-22T05:00:48;11.77;;;10.67;;
3299;SDS011;1662;49.310;8.134;2022-07-22T05:03:14;11.80;;;10.47;;
3299;SDS011;1662;49.310;8.134;2022-07-22T05:05:39;9.53;;;8.77;;
3299;SDS011;1662;49.310;8.134;2022-07-22T05:08:05;9.53;;;8.83;;
3299;SDS011;1662;49.310;8.134;2022-07-22T05:10:31;9.57;;;8.53;;
3299;SDS011;1662;49.310;8.134;2022-07-22T05:12:57;10.70;;;9.60;;
3299;SDS011;1662;49.310;8.134;2022-07-22T05:15:23;8.73;;;8.00;;
3299;SDS011;1662;49.310;8.134;2022-07-22T05:17:51;8.37;;;7.77;;
3299;SDS011;1662;49.310;8.134;2022-07-22T05:20:17;9.77;;;9.07;;
3299;SDS011;1662;49.310;8.134;2022-07-22T05:22:44;11.40;;;9.00;;
3299;SDS011;1662;49.310;8.134;2022-07-22T05:25:10;10.40;;;9.40;;
3299;SDS011;1662;49.310;8.134;2022-07-22T05:27:36;10.13;;;9.10;;
3299;SDS011;1662;49.310;8.134;2022-07-22T05:30:02;11.30;;;10.07;;
3299;SDS011;1662;49.310;8.134;2022-07-22T05:32:28;11.20;;;10.20;;
3299;SDS011;1662;49.310;8.134;2022-07-22T05:34:59;10.10;;;9.30;;
3299;SDS011;1662;49.310;8.134;2022-07-22T05:37:24;9.80;;;8.90;;
3299;SDS011;1662;49.310;8.134;2022-07-22T05:39:50;9.93;;;8.97;;
3299;SDS011;1662;49.310;8.134;2022-07-22T05:42:15;10.00;;;9.10;;
3299;SDS011;1662;49.310;8.134;2022-07-22T05:44:41;9.40;;;8.70;;
3299;SDS011;1662;49.310;8.134;2022-07-22T05:47:16;9.13;;;8.37;;
3299;SDS011;1662;49.310;8.134;2022-07-22T05:49:42;15.37;;;9.70;;
3299;SDS011;1662;49.310;8.134;2022-07-22T05:52:10;13.63;;;11.23;;
3299;SDS011;1662;49.310;8.134;2022-07-22T05:54:35;10.60;;;9.77;;
3299;SDS011;1662;49.310;8.134;2022-07-22T05:57:01;11.73;;;9.60;;
3299;SDS011;1662;49.310;8.134;2022-07-22T05:59:27;10.60;;;9.60;;
3299;SDS011;1662;49.310;8.134;2022-07-22T06:01:53;10.53;;;9.53;;
3299;SDS011;1662;49.310;8.134;2022-07-22T06:04:18;10.83;;;9.23;;
3299;SDS011;1662;49.310;8.134;2022-07-22T06:06:45;10.57;;;9.50;;
3299;SDS011;1662;49.310;8.134;2022-07-22T06:09:11;10.20;;;9.30;;
3299;SDS011;1662;49.310;8.134;2022-07-22T06:11:39;11.03;;;10.03;;
3299;SDS011;1662;49.310;8.134;2022-07-22T06:14:08;9.60;;;8.87;;
3299;SDS011;1662;49.310;8.134;2022-07-22T06:16:33;10.87;;;9.77;;
3299;SDS011;1662;49.310;8.134;2022-07-22T06:19:00;10.40;;;9.27;;
3299;SDS011;1662;49.310;8.134;2022-07-22T06:21:25;11.10;;;9.97;;
3299;SDS011;1662;49.310;8.134;2022-07-22T06:23:51;10.00;;;9.10;;
3299;SDS011;1662;49.310;8.134;2022-07-22T06:26:17;11.17;;;10.00;;
3299;SDS011;1662;49.310;8.134;2022-07-22T06:28:46;10.43;;;9.60;;
3299;SDS011;1662;49.310;8.134;2022-07-22T06:31:12;10.60;;;9.50;;
3299;SDS011;1662;49.310;8.134;2022-07-22T06:33:37;11.70;;;10.70;;
3299;SDS011;1662;49.310;8.134;2022-07-22T06:36:05;11.13;;;10.03;;
3299;SDS011;1662;49.310;8.134;2022-07-22T06:38:36;10.70;;;9.60;;
3299;SDS011;1662;49.310;8.134;2022-07-22T06:41:02;10.93;;;9.70;;
3299;SDS011;1662;49.310;8.134;2022-07-22T06:43:28;9.57;;;8.63;;
3299;SDS011;1662;49.310;8.134;2022-07-22T06:45:54;10.33;;;9.37;;
3299;SDS011;1662;49.310;8.134;2022-07-22T06:48:19;9.43;;;8.63;;
3299;SDS011;1662;49.310;8.134;2022-07-22T06:50:45;10.10;;;9.10;;
3299;SDS011;1662;49.310;8.134;2022-07-22T06:53:10;9.77;;;8.87;;
3299;SDS011;1662;49.310;8.134;2022-07-22T06:55:38;10.30;;;9.40;;
3299;SDS011;1662;49.310;8.134;2022-07-22T06:58:04;9.00;;;8.20;;
3299;SDS011;1662;49.310;8.134;2022-07-22T07:00:30;11.03;;;10.00;;
3299;SDS011;1662;49.310;8.134;2022-07-22T07:02:59;9.80;;;9.00;;
3299;SDS011;1662;49.310;8.134;2022-07-22T07:05:25;11.70;;;10.63;;
3299;SDS011;1662;49.310;8.134;2022-07-22T07:07:55;10.40;;;9.50;;
3299;SDS011;1662;49.310;8.134;2022-07-22T07:10:21;10.77;;;9.67;;
3299;SDS011;1662;49.310;8.134;2022-07-22T07:12:49;10.57;;;9.60;;
3299;SDS011;1662;49.310;8.134;2022-07-22T07:15:19;10.27;;;9.47;;
3299;SDS011;1662;49.310;8.134;2022-07-22T07:17:47;9.80;;;8.90;;
3299;SDS011;1662;49.310;8.134;2022-07-22T07:20:13;10.13;;;9.27;;
3299;SDS011;1662;49.310;8.134;2022-07-22T07:22:38;11.03;;;9.93;;
3299;SDS011;1662;49.310;8.134;2022-07-22T07:25:05;11.50;;;10.40;;
3299;SDS011;1662;49.310;8.134;2022-07-22T07:27:31;11.40;;;10.20;;
3299;SDS011;1662;49.310;8.134;2022-07-22T07:29:58;11.40;;;10.37;;
3299;SDS011;1662;49.310;8.134;2022-07-22T07:32:23;10.20;;;9.23;;
3299;SDS011;1662;49.310;8.134;2022-07-22T07:34:49;11.07;;;10.00;;
3299;SDS011;1662;49.310;8.134;2022-07-22T07:37:14;11.23;;;10.23;;
3299;SDS011;1662;49.310;8.134;2022-07-22T07:39:40;12.73;;;10.60;;
3299;SDS011;1662;49.310;8.134;2022-07-22T07:42:06;10.67;;;9.70;;
3299;SDS011;1662;49.310;8.134;2022-07-22T07:44:32;10.67;;;9.77;;
3299;SDS011;1662;49.310;8.134;2022-07-22T07:46:57;9.30;;;8.60;;
3299;SDS011;1662;49.310;8.134;2022-07-22T07:49:23;11.13;;;10.13;;
3299;SDS011;1662;49.310;8.134;2022-07-22T07:51:49;13.47;;;12.27;;
3299;SDS011;1662;49.310;8.134;2022-07-22T07:54:15;11.10;;;10.00;;
3299;SDS011;1662;49.310;8.134;2022-07-22T07:56:40;12.17;;;11.00;;
3299;SDS011;1662;49.310;8.134;2022-07-22T07:59:08;12.40;;;11.40;;
3299;SDS011;1662;49.310;8.134;2022-07-22T08:01:34;11.33;;;10.13;;
3299;SDS011;1662;49.310;8.134;2022-07-22T08:04:00;11.30;;;9.63;;
3299;SDS011;1662;49.310;8.134;2022-07-22T08:06:25;14.93;;;11.70;;
3299;SDS011;1662;49.310;8.134;2022-07-22T08:08:51;11.17;;;10.27;;
3299;SDS011;1662;49.310;8.134;2022-07-22T08:11:17;10.80;;;9.67;;
3299;SDS011;1662;49.310;8.134;2022-07-22T08:13:43;11.17;;;10.13;;
3299;SDS011;1662;49.310;8.134;2022-07-22T08:16:10;11.30;;;10.23;;
3299;SDS011;1662;49.310;8.134;2022-07-22T08:18:36;11.13;;;10.17;;
3299;SDS011;1662;49.310;8.134;2022-07-22T08:21:04;10.90;;;9.90;;
3299;SDS011;1662;49.310;8.134;2022-07-22T08:23:32;10.13;;;9.37;;
3299;SDS011;1662;49.310;8.134;2022-07-22T08:25:58;12.00;;;10.80;;
3299;SDS011;1662;49.310;8.134;2022-07-22T08:28:24;15.27;;;10.17;;
3299;SDS011;1662;49.310;8.134;2022-07-22T08:30:50;11.10;;;10.10;;
3299;SDS011;1662;49.310;8.134;2022-07-22T08:33:16;11.70;;;10.50;;
3299;SDS011;1662;49.310;8.134;2022-07-22T08:35:42;12.20;;;11.03;;
3299;SDS011;1662;49.310;8.134;2022-07-22T08:38:07;11.07;;;10.10;;
3299;SDS011;1662;49.310;8.134;2022-07-22T08:40:33;10.57;;;9.67;;
3299;SDS011;1662;49.310;8.134;2022-07-22T08:42:59;10.40;;;9.50;;
3299;SDS011;1662;49.310;8.134;2022-07-22T08:45:28;10.87;;;9.80;;
3299;SDS011;1662;49.310;8.134;2022-07-22T08:47:54;12.67;;;10.63;;
3299;SDS011;1662;49.310;8.134;2022-07-22T08:50:20;11.30;;;10.20;;
3299;SDS011;1662;49.310;8.134;2022-07-22T08:52:48;10.57;;;9.77;;
3299;SDS011;1662;49.310;8.134;2022-07-22T08:55:17;12.40;;;11.40;;
3299;SDS011;1662;49.310;8.134;2022-07-22T08:57:45;10.67;;;9.87;;
3299;SDS011;1662;49.310;8.134;2022-07-22T09:00:12;10.73;;;9.53;;
3299;SDS011;1662;49.310;8.134;2022-07-22T09:02:45;11.63;;;10.73;;
3299;SDS011;1662;49.310;8.134;2022-07-22T09:05:12;10.00;;;9.20;;
3299;SDS011;1662;49.310;8.134;2022-07-22T09:07:40;12.00;;;11.10;;
3299;SDS011;1662;49.310;8.134;2022-07-22T09:10:11;11.33;;;10.33;;
3299;SDS011;1662;49.310;8.134;2022-07-22T09:13:01;11.23;;;10.37;;
3299;SDS011;1662;49.310;8.134;2022-07-22T09:15:29;12.40;;;11.27;;
3299;SDS011;1662;49.310;8.134;2022-07-22T09:17:59;12.37;;;10.87;;
3299;SDS011;1662;49.310;8.134;2022-07-22T09:20:26;11.60;;;10.70;;
3299;SDS011;1662;49.310;8.134;2022-07-22T09:22:54;13.13;;;11.87;;
3299;SDS011;1662;49.310;8.134;2022-07-22T09:27:51;10.73;;;9.93;;
3299;SDS011;1662;49.310;8.134;2022-07-22T09:30:36;11.17;;;10.30;;
3299;SDS011;1662;49.310;8.134;2022-07-22T09:33:10;12.63;;;11.73;;
3299;SDS011;1662;49.310;8.134;2022-07-22T09:35:36;12.43;;;11.23;;
3299;SDS011;1662;49.310;8.134;2022-07-22T09:38:05;11.20;;;10.20;;
3299;SDS011;1662;49.310;8.134;2022-07-22T09:40:36;11.57;;;10.67;;
3299;SDS011;1662;49.310;8.134;2022-07-22T09:43:16;12.23;;;11.33;;
3299;SDS011;1662;49.310;8.134;2022-07-22T09:45:47;12.83;;;11.53;;
3299;SDS011;1662;49.310;8.134;2022-07-22T09:48:16;12.20;;;11.10;;
3299;SDS011;1662;49.310;8.134;2022-07-22T09:50:45;12.33;;;11.37;;
3299;SDS011;1662;49.310;8.134;2022-07-22T09:53:12;12.87;;;11.70;;
3299;SDS011;1662;49.310;8.134;2022-07-22T09:55:39;13.03;;;12.03;;
3299;SDS011;1662;49.310;8.134;2022-07-22T09:58:07;12.63;;;11.73;;
3299;SDS011;1662;49.310;8.134;2022-07-22T10:00:36;12.40;;;11.40;;
3299;SDS011;1662;49.310;8.134;2022-07-22T10:03:03;12.57;;;11.67;;
3299;SDS011;1662;49.310;8.134;2022-07-22T10:05:32;12.40;;;11.43;;
3299;SDS011;1662;49.310;8.134;2022-07-22T10:08:05;12.63;;;11.70;;
3299;SDS011;1662;49.310;8.134;2022-07-22T10:10:32;12.80;;;11.70;;
3299;SDS011;1662;49.310;8.134;2022-07-22T10:13:02;13.50;;;12.60;;
3299;SDS011;1662;49.310;8.134;2022-07-22T10:15:30;12.23;;;11.40;;
3299;SDS011;1662;49.310;8.134;2022-07-22T10:17:59;13.60;;;12.50;;
3299;SDS011;1662;49.310;8.134;2022-07-22T10:20:28;13.23;;;12.10;;
3299;SDS011;1662;49.310;8.134;2022-07-22T10:25:23;12.93;;;11.83;;
3299;SDS011;1662;49.310;8.134;2022-07-22T10:27:59;13.13;;;12.00;;
3299;SDS011;1662;49.310;8.134;2022-07-22T10:30:34;13.17;;;12.20;;
3299;SDS011;1662;49.310;8.134;2022-07-22T10:33:04;12.47;;;11.67;;
3299;SDS011;1662;49.310;8.134;2022-07-22T10:35:36;12.93;;;12.03;;
3299;SDS011;1662;49.310;8.134;2022-07-22T10:38:04;12.97;;;11.87;;
3299;SDS011;1662;49.310;8.134;2022-07-22T10:40:44;13.33;;;12.43;;
3299;SDS011;1662;49.310;8.134;2022-07-22T10:43:12;14.20;;;13.20;;
3299;SDS011;1662;49.310;8.134;2022-07-22T10:48:09;13.20;;;12.40;;
3299;SDS011;1662;49.310;8.134;2022-07-22T10:53:09;13.10;;;12.20;;
3299;SDS011;1662;49.310;8.134;2022-07-22T10:55:38;12.90;;;12.10;;
3299;SDS011;1662;49.310;8.134;2022-07-22T11:01:02;14.30;;;13.10;;
3299;SDS011;1662;49.310;8.134;2022-07-22T11:03:30;13.30;;;12.30;;
3299;SDS011;1662;49.310;8.134;2022-07-22T11:06:30;13.40;;;12.40;;
3299;SDS011;1662;49.310;8.134;2022-07-22T11:09:14;14.20;;;13.23;;
3299;SDS011;1662;49.310;8.134;2022-07-22T11:11:44;13.80;;;12.80;;
3299;SDS011;1662;49.310;8.134;2022-07-22T11:14:12;13.07;;;12.37;;
3299;SDS011;1662;49.310;8.134;2022-07-22T11:16:43;14.87;;;13.70;;
3299;SDS011;1662;49.310;8.134;2022-07-22T11:19:10;14.60;;;13.70;;
3299;SDS011;1662;49.310;8.134;2022-07-22T11:21:38;13.83;;;12.90;;
3299;SDS011;1662;49.310;8.134;2022-07-22T11:24:05;14.43;;;13.50;;
3299;SDS011;1662;49.310;8.134;2022-07-22T11:26:37;13.70;;;12.80;;
3299;SDS011;1662;49.310;8.134;2022-07-22T11:29:09;15.07;;;13.87;;
3299;SDS011;1662;49.310;8.134;2022-07-22T11:31:36;13.83;;;13.03;;
3299;SDS011;1662;49.310;8.134;2022-07-22T11:34:06;14.37;;;13.17;;
3299;SDS011;1662;49.310;8.134;2022-07-22T11:36:33;14.07;;;13.20;;
3299;SDS011;1662;49.310;8.134;2022-07-22T11:39:01;16.17;;;14.67;;
3299;SDS011;1662;49.310;8.134;2022-07-22T11:41:30;14.33;;;13.47;;
3299;SDS011;1662;49.310;8.134;2022-07-22T11:43:56;13.37;;;12.57;;
3299;SDS011;1662;49.310;8.134;2022-07-22T11:46:23;13.80;;;12.90;;
3299;SDS011;1662;49.310;8.134;2022-07-22T11:48:51;13.60;;;12.80;;
3299;SDS011;1662;49.310;8.134;2022-07-22T11:51:17;14.37;;;13.57;;
3299;SDS011;1662;49.310;8.134;2022-07-22T11:53:43;13.40;;;12.67;;
3299;SDS011;1662;49.310;8.134;2022-07-22T11:56:09;14.30;;;13.50;;
3299;SDS011;1662;49.310;8.134;2022-07-22T11:58:36;13.57;;;12.83;;
3299;SDS011;1662;49.310;8.134;2022-07-22T12:01:06;15.20;;;14.30;;
3299;SDS011;1662;49.310;8.134;2022-07-22T12:03:34;13.83;;;13.00;;
3299;SDS011;1662;49.310;8.134;2022-07-22T12:06:01;13.10;;;12.50;;
3299;SDS011;1662;49.310;8.134;2022-07-22T12:08:28;14.17;;;13.37;;
3299;SDS011;1662;49.310;8.134;2022-07-22T12:10:57;14.40;;;13.70;;
3299;SDS011;1662;49.310;8.134;2022-07-22T12:13:32;14.37;;;13.57;;
3299;SDS011;1662;49.310;8.134;2022-07-22T12:15:58;14.10;;;13.20;;
3299;SDS011;1662;49.310;8.134;2022-07-22T12:18:26;14.20;;;12.97;;
3299;SDS011;1662;49.310;8.134;2022-07-22T12:20:53;13.90;;;13.20;;
3299;SDS011;1662;49.310;8.134;2022-07-22T12:23:24;13.40;;;12.60;;
3299;SDS011;1662;49.310;8.134;2022-07-22T12:28:18;12.93;;;12.23;;
3299;SDS011;1662;49.310;8.134;2022-07-22T12:30:44;13.40;;;12.60;;
3299;SDS011;1662;49.310;8.134;2022-07-22T12:33:14;14.20;;;13.40;;
3299;SDS011;1662;49.310;8.134;2022-07-22T12:35:41;13.30;;;12.70;;
3299;SDS011;1662;49.310;8.134;2022-07-22T12:38:08;13.83;;;13.10;;
3299;SDS011;1662;49.310;8.134;2022-07-22T12:40:34;13.87;;;13.10;;
3299;SDS011;1662;49.310;8.134;2022-07-22T12:45:29;14.20;;;13.27;;
3299;SDS011;1662;49.310;8.134;2022-07-22T12:48:00;15.03;;;13.83;;
3299;SDS011;1662;49.310;8.134;2022-07-22T12:53:19;14.87;;;13.97;;
3299;SDS011;1662;49.310;8.134;2022-07-22T12:55:45;14.47;;;13.13;;
3299;SDS011;1662;49.310;8.134;2022-07-22T12:58:14;13.20;;;12.60;;
3299;SDS011;1662;49.310;8.134;2022-07-22T13:00:42;13.97;;;13.20;;
3299;SDS011;1662;49.310;8.134;2022-07-22T13:03:09;13.97;;;13.20;;
3299;SDS011;1662;49.310;8.134;2022-07-22T13:05:35;14.53;;;13.73;;
3299;SDS011;1662;49.310;8.134;2022-07-22T13:08:03;14.50;;;13.60;;
3299;SDS011;1662;49.310;8.134;2022-07-22T13:10:29;13.90;;;13.00;;
3299;SDS011;1662;49.310;8.134;2022-07-22T13:12:55;14.40;;;13.50;;
3299;SDS011;1662;49.310;8.134;2022-07-22T13:15:21;12.57;;;12.00;;
3299;SDS011;1662;49.310;8.134;2022-07-22T13:17:50;13.27;;;12.67;;
3299;SDS011;1662;49.310;8.134;2022-07-22T13:20:16;13.43;;;12.63;;
3299;SDS011;1662;49.310;8.134;2022-07-22T13:22:43;14.23;;;13.50;;
3299;SDS011;1662;49.310;8.134;2022-07-22T13:25:10;13.83;;;13.07;;
3299;SDS011;1662;49.310;8.134;2022-07-22T13:27:39;13.50;;;12.90;;
3299;SDS011;1662;49.310;8.134;2022-07-22T13:30:05;13.30;;;12.60;;
3299;SDS011;1662;49.310;8.134;2022-07-22T13:32:31;13.90;;;13.20;;
3299;SDS011;1662;49.310;8.134;2022-07-22T13:34:57;14.17;;;13.27;;
3299;SDS011;1662;49.310;8.134;2022-07-22T13:37:23;15.33;;;14.23;;
3299;SDS011;1662;49.310;8.134;2022-07-22T13:39:49;14.60;;;13.80;;
3299;SDS011;1662;49.310;8.134;2022-07-22T13:42:15;14.57;;;13.70;;
3299;SDS011;1662;49.310;8.134;2022-07-22T13:44:43;14.53;;;13.73;;
3299;SDS011;1662;49.310;8.134;2022-07-22T13:47:10;15.00;;;14.20;;
3299;SDS011;1662;49.310;8.134;2022-07-22T13:49:35;14.27;;;13.47;;
3299;SDS011;1662;49.310;8.134;2022-07-22T13:52:02;13.77;;;13.03;;
3299;SDS011;1662;49.310;8.134;2022-07-22T13:54:31;14.10;;;13.50;;
3299;SDS011;1662;49.310;8.134;2022-07-22T13:56:57;15.17;;;13.90;;
3299;SDS011;1662;49.310;8.134;2022-07-22T13:59:24;14.30;;;13.50;;
3299;SDS011;1662;49.310;8.134;2022-07-22T14:01:50;14.73;;;13.83;;
3299;SDS011;1662;49.310;8.134;2022-07-22T14:04:16;14.50;;;13.70;;
3299;SDS011;1662;49.310;8.134;2022-07-22T14:06:41;13.90;;;13.10;;
3299;SDS011;1662;49.310;8.134;2022-07-22T14:09:07;14.67;;;13.90;;
3299;SDS011;1662;49.310;8.134;2022-07-22T14:11:33;13.40;;;12.70;;
3299;SDS011;1662;49.310;8.134;2022-07-22T14:13:58;13.90;;;13.10;;
3299;SDS011;1662;49.310;8.134;2022-07-22T14:16:26;14.60;;;13.40;;
3299;SDS011;1662;49.310;8.134;2022-07-22T14:21:29;13.97;;;13.27;;
3299;SDS011;1662;49.310;8.134;2022-07-22T14:23:57;13.83;;;12.90;;
3299;SDS011;1662;49.310;8.134;2022-07-22T14:26:25;15.43;;;14.20;;
3299;SDS011;1662;49.310;8.134;2022-07-22T14:28:51;14.73;;;13.73;;
3299;SDS011;1662;49.310;8.134;2022-07-22T14:31:17;14.03;;;13.37;;
3299;SDS011;1662;49.310;8.134;2022-07-22T14:33:43;13.50;;;12.80;;
3299;SDS011;1662;49.310;8.134;2022-07-22T14:36:10;14.37;;;13.43;;
3299;SDS011;1662;49.310;8.134;2022-07-22T14:38:36;13.37;;;12.77;;
3299;SDS011;1662;49.310;8.134;2022-07-22T14:41:02;13.93;;;13.20;;
3299;SDS011;1662;49.310;8.134;2022-07-22T14:43:32;13.00;;;12.30;;
3299;SDS011;1662;49.310;8.134;2022-07-22T14:45:58;13.30;;;12.60;;
3299;SDS011;1662;49.310;8.134;2022-07-22T14:48:26;13.83;;;13.07;;
3299;SDS011;1662;49.310;8.134;2022-07-22T14:50:52;14.50;;;13.70;;
3299;SDS011;1662;49.310;8.134;2022-07-22T14:53:18;14.20;;;13.30;;
3299;SDS011;1662;49.310;8.134;2022-07-22T14:55:44;14.47;;;13.67;;
3299;SDS011;1662;49.310;8.134;2022-07-22T14:58:12;14.20;;;13.40;;
3299;SDS011;1662;49.310;8.134;2022-07-22T15:00:37;14.47;;;13.63;;
3299;SDS011;1662;49.310;8.134;2022-07-22T15:03:03;14.27;;;13.50;;
3299;SDS011;1662;49.310;8.134;2022-07-22T15:05:28;13.80;;;13.00;;
3299;SDS011;1662;49.310;8.134;2022-07-22T15:07:54;14.17;;;13.47;;
3299;SDS011;1662;49.310;8.134;2022-07-22T15:10:22;14.93;;;13.83;;
3299;SDS011;1662;49.310;8.134;2022-07-22T15:12:48;15.20;;;14.40;;
3299;SDS011;1662;49.310;8.134;2022-07-22T15:15:13;14.20;;;13.40;;